Time;durP1;ratioP1;P1;durP2;ratioP2;P2;SDS_P1;SDS_P2;PMS_P1;PMS_P2;Temp;Humidity;BMP_temperature;BMP_pressure;BME280_temperature;BME280_humidity;BME280_pressure;Samples;Min_cycle;Max_cycle;Signal;HPM_P1;HPM_P2
2022/04/15 00:00:15;;;;;;;7.50;6.70;;;;;;;9.58;51.11;95360.09;5057017;28;20185;-70
2022/04/15 00:02:42;;;;;;;7.78;6.95;;;;;;;9.48;51.61;95364.09;5040016;28;20214;-69
2022/04/15 00:07:58;;;;;;;6.90;6.10;;;;;;;9.35;52.34;95371.50;5040619;28;20197;-69
2022/04/15 00:10:28;;;;;;;9.98;7.75;;;;;;;9.25;51.77;95362.84;5040145;28;20201;-69
2022/04/15 00:12:55;;;;;;;7.55;6.85;;;;;;;9.21;52.90;95368.22;5039392;28;20194;-69
2022/04/15 00:15:24;;;;;;;8.40;6.75;;;;;;;9.16;52.30;95368.44;5039963;28;20194;-69
2022/04/15 00:17:52;;;;;;;8.05;6.50;;;;;;;9.16;52.31;95369.22;5056968;28;20221;-69
2022/04/15 00:20:19;;;;;;;9.00;6.90;;;;;;;9.10;52.75;95372.50;5057007;28;20213;-69
2022/04/15 00:22:47;;;;;;;8.32;6.43;;;;;;;9.08;52.84;95370.13;5040021;28;20264;-69
2022/04/15 00:25:16;;;;;;;7.80;6.90;;;;;;;9.07;52.48;95373.19;5057460;28;20201;-69
2022/04/15 00:27:46;;;;;;;7.55;6.68;;;;;;;8.94;53.22;95368.78;5056501;28;20260;-69
2022/04/15 00:30:15;;;;;;;8.95;6.80;;;;;;;8.90;53.13;95368.63;5057019;28;20186;-70
2022/04/15 00:32:43;;;;;;;7.28;6.53;;;;;;;8.83;53.52;95371.91;5056728;28;20190;-70
2022/04/15 00:35:12;;;;;;;6.75;6.00;;;;;;;8.67;53.52;95368.94;5056272;28;20211;-70
2022/04/15 00:37:40;;;;;;;7.43;6.63;;;;;;;8.67;53.82;95368.13;5056223;28;20232;-69
2022/04/15 00:40:12;;;;;;;6.88;6.25;;;;;;;8.73;53.40;95368.75;5055656;28;20232;-69
2022/04/15 00:42:39;;;;;;;9.35;6.88;;;;;;;8.68;53.53;95367.81;5056685;28;20542;-69
2022/04/15 00:45:11;;;;;;;9.40;6.30;;;;;;;8.72;53.52;95367.16;5056670;28;20192;-69
2022/04/15 00:47:52;;;;;;;9.27;6.75;;;;;;;8.73;53.49;95369.56;5039455;28;20256;-69
2022/04/15 00:50:21;;;;;;;7.45;6.60;;;;;;;8.73;54.15;95366.00;5039019;28;20526;-69
2022/04/15 00:52:50;;;;;;;6.90;6.05;;;;;;;8.69;54.50;95363.13;5038292;28;20225;-70
2022/04/15 00:55:20;;;;;;;9.57;6.25;;;;;;;8.69;54.65;95368.63;5038787;28;20194;-69
2022/04/15 00:57:50;;;;;;;6.32;5.72;;;;;;;8.78;54.95;95365.78;5038577;28;20672;-69
2022/04/15 01:00:20;;;;;;;7.85;6.70;;;;;;;8.85;54.85;95368.81;5056359;28;20186;-69
2022/04/15 01:02:51;;;;;;;8.05;6.38;;;;;;;8.73;54.51;95372.31;5038755;28;20308;-69
2022/04/15 01:05:20;;;;;;;9.75;6.90;;;;;;;8.59;54.30;95374.50;5068076;28;20237;-70
2022/04/15 01:07:50;;;;;;;8.80;6.75;;;;;;;8.57;54.54;95368.50;5096917;28;20180;-70
2022/04/15 01:10:20;;;;;;;8.02;6.32;;;;;;;8.54;54.70;95370.00;5096600;28;20223;-70
2022/04/15 01:12:51;;;;;;;7.85;5.88;;;;;;;8.51;54.58;95370.66;5096530;28;20258;-70
2022/04/15 01:15:22;;;;;;;7.68;6.45;;;;;;;8.43;55.05;95372.31;5079296;28;20204;-69
2022/04/15 01:17:51;;;;;;;6.70;5.78;;;;;;;8.41;54.58;95365.53;5096641;28;20220;-69
2022/04/15 01:20:19;;;;;;;6.72;6.07;;;;;;;8.38;54.21;95367.00;5078700;28;20200;-70
2022/04/15 01:22:48;;;;;;;7.35;6.63;;;;;;;8.38;55.55;95364.25;5096252;28;20242;-70
2022/04/15 01:25:18;;;;;;;7.60;5.68;;;;;;;8.36;54.60;95361.00;5078852;28;20200;-70
2022/04/15 01:27:48;;;;;;;6.60;5.97;;;;;;;8.41;54.79;95363.59;5079031;28;20204;-70
2022/04/15 01:30:17;;;;;;;7.85;5.60;;;;;;;8.42;55.02;95358.88;5078803;28;20231;-70
2022/04/15 01:32:45;;;;;;;8.52;6.10;;;;;;;8.32;55.59;95364.75;5078638;28;20230;-69
2022/04/15 01:35:15;;;;;;;10.65;6.18;;;;;;;8.22;54.98;95351.38;5096284;28;20246;-69
2022/04/15 01:37:44;;;;;;;7.07;6.38;;;;;;;8.13;55.08;95352.25;5096222;28;20189;-69
2022/04/15 01:40:12;;;;;;;6.80;6.20;;;;;;;8.18;55.64;95346.56;5078319;28;20541;-69
2022/04/15 01:42:41;;;;;;;9.70;6.28;;;;;;;8.19;55.52;95341.84;5078798;28;20258;-69
2022/04/15 01:45:11;;;;;;;10.50;6.97;;;;;;;8.19;55.70;95344.59;5079419;28;20267;-69
2022/04/15 01:47:39;;;;;;;7.35;6.50;;;;;;;8.18;55.50;95335.56;5079086;28;20231;-69
2022/04/15 01:50:09;;;;;;;8.48;6.45;;;;;;;8.19;55.66;95345.41;5096577;28;20265;-69
2022/04/15 01:52:39;;;;;;;8.93;6.38;;;;;;;8.09;55.48;95339.47;5096712;28;20210;-69
2022/04/15 01:55:09;;;;;;;11.25;6.55;;;;;;;7.88;55.19;95344.88;5078905;28;20199;-69
2022/04/15 01:57:37;;;;;;;10.55;6.30;;;;;;;7.83;55.15;95343.13;5095717;28;20270;-68
2022/04/15 02:00:09;;;;;;;9.45;5.78;;;;;;;7.86;55.47;95337.00;5095596;28;20586;-69
2022/04/15 02:02:36;;;;;;;8.68;6.45;;;;;;;7.93;55.22;95339.22;5078240;28;20287;-69
2022/04/15 02:05:03;;;;;;;7.00;6.30;;;;;;;7.97;55.42;95346.47;5095120;28;20259;-69
2022/04/15 02:07:30;;;;;;;11.02;6.53;;;;;;;8.00;55.07;95338.72;5078356;28;20193;-69
2022/04/15 02:09:57;;;;;;;7.40;6.10;;;;;;;7.94;55.05;95325.16;5077861;28;20531;-69
2022/04/15 02:12:25;;;;;;;8.70;6.82;;;;;;;7.91;55.21;95339.53;5095348;28;20231;-70
2022/04/15 02:14:52;;;;;;;8.70;6.53;;;;;;;7.90;56.30;95335.19;5095051;28;20687;-70
2022/04/15 02:17:21;;;;;;;10.38;7.32;;;;;;;7.91;56.16;95330.50;5077900;28;20207;-69
2022/04/15 02:19:48;;;;;;;10.82;6.43;;;;;;;7.88;56.29;95331.16;5077697;28;20196;-69
2022/04/15 02:22:16;;;;;;;12.32;7.38;;;;;;;7.74;55.93;95328.66;5077422;28;20208;-69
2022/04/15 02:24:42;;;;;;;13.50;8.68;;;;;;;7.63;56.07;95335.63;5077562;28;20257;-69
2022/04/15 02:27:09;;;;;;;10.95;8.20;;;;;;;7.67;56.06;95329.16;5077977;28;20275;-69
2022/04/15 02:29:36;;;;;;;12.05;7.97;;;;;;;7.70;56.07;95330.44;5095010;28;20514;-69
2022/04/15 02:32:03;;;;;;;8.95;7.47;;;;;;;7.75;56.33;95341.22;5095129;28;20220;-69
2022/04/15 02:34:32;;;;;;;13.90;7.63;;;;;;;7.67;55.98;95334.63;5077106;28;20193;-69
2022/04/15 02:36:59;;;;;;;10.63;6.93;;;;;;;7.60;56.31;95331.59;5095039;28;20180;-69
2022/04/15 02:39:26;;;;;;;10.07;7.00;;;;;;;7.50;56.52;95333.88;5077346;28;20243;-69
2022/04/15 02:41:56;;;;;;;8.25;6.80;;;;;;;7.43;56.58;95337.13;5077572;28;20247;-69
2022/04/15 02:44:24;;;;;;;13.32;7.80;;;;;;;7.37;56.49;95333.75;5078047;28;20196;-70
2022/04/15 02:46:53;;;;;;;15.90;9.48;;;;;;;7.27;56.21;95339.56;5094899;28;20589;-69
2022/04/15 02:49:20;;;;;;;13.82;8.45;;;;;;;7.23;56.62;95336.69;5077342;28;20239;-70
2022/04/15 02:51:49;;;;;;;13.85;8.30;;;;;;;7.29;56.89;95336.50;5094933;28;20176;-69
2022/04/15 02:54:16;;;;;;;12.98;8.30;;;;;;;7.28;56.67;95343.13;5077167;28;20596;-69
2022/04/15 02:56:43;;;;;;;15.15;7.35;;;;;;;7.28;56.54;95332.94;5077008;28;20231;-69
2022/04/15 02:59:10;;;;;;;13.52;8.32;;;;;;;7.37;56.95;95341.16;5076722;28;20235;-69
2022/04/15 03:01:38;;;;;;;13.57;7.85;;;;;;;7.33;57.07;95342.94;5076781;28;20232;-69
2022/04/15 03:04:05;;;;;;;10.43;8.35;;;;;;;7.37;57.33;95344.72;5078414;28;20200;-69
2022/04/15 03:06:32;;;;;;;12.25;8.18;;;;;;;7.39;57.34;95341.66;5098335;28;20205;-69
2022/04/15 03:09:00;;;;;;;11.63;7.88;;;;;;;7.40;57.56;95343.25;5080636;28;20525;-71
2022/04/15 03:11:28;;;;;;;11.82;8.63;;;;;;;7.30;57.22;95343.59;5098351;28;20547;-69
2022/04/15 03:13:55;;;;;;;16.42;8.63;;;;;;;7.23;58.18;95342.16;5098226;28;20198;-71
2022/04/15 03:16:22;;;;;;;12.50;8.82;;;;;;;7.16;57.92;95347.34;5081143;28;20210;-71
2022/04/15 03:18:49;;;;;;;16.60;9.30;;;;;;;7.08;57.38;95345.41;5081358;28;20227;-70
2022/04/15 03:21:16;;;;;;;13.68;8.82;;;;;;;7.13;58.42;95337.00;5098378;28;20531;-69
2022/04/15 03:23:43;;;;;;;14.23;8.93;;;;;;;7.17;57.61;95345.41;5080053;28;20208;-69
2022/04/15 03:26:12;;;;;;;20.35;8.90;;;;;;;7.18;58.04;95344.25;5080314;28;20261;-69
2022/04/15 03:28:39;;;;;;;13.30;8.15;;;;;;;7.21;57.97;95338.94;5097914;28;20181;-69
2022/04/15 03:31:06;;;;;;;16.90;8.02;;;;;;;7.18;57.26;95350.53;5080303;28;20291;-69
2022/04/15 03:33:33;;;;;;;16.90;8.52;;;;;;;7.13;57.59;95347.19;5098267;28;20185;-69
2022/04/15 03:36:00;;;;;;;18.73;9.35;;;;;;;7.14;58.11;95349.59;5080177;28;20669;-70
2022/04/15 03:38:27;;;;;;;18.02;8.63;;;;;;;7.14;57.75;95351.53;5079752;28;20285;-70
2022/04/15 03:40:53;;;;;;;14.07;8.10;;;;;;;7.06;57.36;95358.63;5098044;28;20177;-70
2022/04/15 03:43:22;;;;;;;16.05;10.00;;;;;;;6.94;58.52;95361.22;5098057;28;20219;-69
2022/04/15 03:45:49;;;;;;;17.50;9.90;;;;;;;6.82;57.96;95353.63;5080157;28;20281;-72
2022/04/15 03:48:16;;;;;;;19.67;10.77;;;;;;;6.83;58.69;95355.25;5079720;28;20192;-73
2022/04/15 03:50:43;;;;;;;15.60;9.90;;;;;;;6.85;58.08;95355.72;5080012;28;20192;-70
2022/04/15 03:53:10;;;;;;;19.17;11.30;;;;;;;6.84;58.26;95356.06;5079812;28;20220;-71
2022/04/15 03:55:37;;;;;;;17.50;10.82;;;;;;;6.77;58.10;95361.22;5097715;28;20223;-71
2022/04/15 03:58:05;;;;;;;17.90;12.00;;;;;;;6.74;58.47;95357.16;5097438;28;20231;-71
2022/04/15 04:00:34;;;;;;;22.45;11.68;;;;;;;6.78;58.47;95357.34;5097455;28;20224;-71
2022/04/15 04:03:01;;;;;;;23.17;10.68;;;;;;;6.82;58.62;95361.84;5096926;28;20697;-71
2022/04/15 04:05:28;;;;;;;17.40;10.10;;;;;;;6.80;58.98;95361.38;5097021;28;20240;-71
2022/04/15 04:07:56;;;;;;;18.65;10.45;;;;;;;6.81;58.98;95357.50;5097142;28;20188;-72
2022/04/15 04:10:23;;;;;;;23.50;11.15;;;;;;;6.84;58.61;95361.53;5079387;28;20695;-71
2022/04/15 04:12:51;;;;;;;28.08;11.02;;;;;;;6.80;58.50;95361.38;5096738;28;20202;-71
2022/04/15 04:15:18;;;;;;;19.48;11.23;;;;;;;6.84;58.85;95367.81;5096001;28;20193;-71
2022/04/15 04:17:48;;;;;;;23.23;11.60;;;;;;;6.91;59.32;95368.16;5096719;28;20185;-71
2022/04/15 04:20:16;;;;;;;21.98;10.95;;;;;;;6.95;59.46;95369.13;5079407;28;20222;-71
2022/04/15 04:22:43;;;;;;;26.40;11.05;;;;;;;6.95;59.19;95374.59;5096801;28;20252;-71
2022/04/15 04:25:11;;;;;;;22.23;12.30;;;;;;;6.98;59.11;95373.16;5096777;28;20211;-71
2022/04/15 04:27:39;;;;;;;25.75;12.35;;;;;;;7.01;59.27;95378.00;5079076;28;20601;-71
2022/04/15 04:30:12;;;;;;;26.35;13.10;;;;;;;6.95;59.08;95377.34;5096478;28;20224;-71
2022/04/15 04:32:40;;;;;;;28.70;14.18;;;;;;;6.90;58.26;95383.00;5078554;28;20200;-71
2022/04/15 04:35:09;;;;;;;28.42;14.15;;;;;;;6.88;58.84;95376.22;5096362;28;20193;-71
2022/04/15 04:37:35;;;;;;;24.88;14.10;;;;;;;6.96;59.64;95378.16;5078461;28;20224;-71
2022/04/15 04:40:03;;;;;;;31.98;14.45;;;;;;;7.03;58.94;95383.97;5096329;28;20187;-71
2022/04/15 04:42:30;;;;;;;34.55;14.52;;;;;;;7.05;58.92;95383.66;5078724;28;20250;-71
2022/04/15 04:44:58;;;;;;;27.42;13.80;;;;;;;7.08;58.96;95383.81;5096411;28;20196;-71
2022/04/15 04:47:25;;;;;;;33.95;13.93;;;;;;;7.10;59.08;95376.06;5079148;28;20193;-71
2022/04/15 04:49:52;;;;;;;24.85;13.98;;;;;;;7.11;58.81;95385.09;5078254;28;20197;-71
2022/04/15 04:52:21;;;;;;;24.40;13.65;;;;;;;7.16;58.46;95393.97;5095992;28;20180;-71
2022/04/15 04:54:48;;;;;;;26.15;14.25;;;;;;;7.27;59.41;95396.41;5078361;28;20212;-71
2022/04/15 04:57:15;;;;;;;26.83;13.00;;;;;;;7.32;58.03;95394.28;5096180;28;20231;-71
2022/04/15 04:59:42;;;;;;;28.90;13.65;;;;;;;7.34;58.71;95389.28;5096407;28;20188;-71
2022/04/15 05:02:12;;;;;;;28.45;13.38;;;;;;;7.40;58.63;95389.91;5078579;28;20232;-71
2022/04/15 05:04:40;;;;;;;22.50;13.13;;;;;;;7.46;58.92;95391.34;5095417;28;20305;-71
2022/04/15 05:07:07;;;;;;;32.28;14.15;;;;;;;7.46;58.71;95394.91;5096027;28;20184;-71
2022/04/15 05:09:35;;;;;;;22.88;13.20;;;;;;;7.47;58.21;95391.03;5096046;28;20185;-71
2022/04/15 05:12:02;;;;;;;25.55;13.25;;;;;;;7.58;58.19;95390.69;5077970;28;20662;-71
2022/04/15 05:14:29;;;;;;;28.35;15.75;;;;;;;7.71;57.76;95395.19;5078525;28;20203;-71
2022/04/15 05:16:56;;;;;;;33.83;17.75;;;;;;;7.81;56.58;95399.53;5096040;28;20180;-71
2022/04/15 05:19:23;;;;;;;27.73;16.58;;;;;;;7.88;57.52;95395.16;5095802;28;20603;-71
2022/04/15 05:21:52;;;;;;;30.35;18.42;;;;;;;7.92;56.70;95398.06;5077982;28;20200;-71
2022/04/15 05:24:20;;;;;;;33.13;19.40;;;;;;;8.04;56.16;95402.84;5095754;28;20300;-71
2022/04/15 05:26:48;;;;;;;27.30;18.30;;;;;;;8.08;55.92;95395.56;5095557;28;20257;-72
2022/04/15 05:29:15;;;;;;;25.33;17.95;;;;;;;8.13;56.21;95401.69;5096261;28;20211;-71
2022/04/15 05:31:43;;;;;;;26.90;17.17;;;;;;;8.18;55.75;95386.97;5095698;28;20197;-71
2022/04/15 05:34:10;;;;;;;25.10;16.08;;;;;;;8.18;55.60;95396.00;5095478;28;20177;-71
2022/04/15 05:36:37;;;;;;;23.73;15.95;;;;;;;8.25;55.08;95392.75;5095276;28;20232;-71
2022/04/15 05:39:04;;;;;;;25.58;15.43;;;;;;;8.36;55.47;95390.44;5095676;28;20189;-71
2022/04/15 05:41:31;;;;;;;19.63;14.52;;;;;;;8.39;53.83;95390.63;5095627;28;20184;-71
2022/04/15 05:44:03;;;;;;;20.75;13.95;;;;;;;8.45;54.47;95393.97;5095502;28;20228;-71
2022/04/15 05:46:30;;;;;;;20.27;14.48;;;;;;;8.55;55.53;95401.84;5077604;28;20261;-71
2022/04/15 05:48:57;;;;;;;19.55;14.02;;;;;;;8.59;54.75;95400.03;5095723;28;20192;-71
2022/04/15 05:51:24;;;;;;;19.80;13.60;;;;;;;8.62;53.68;95388.38;5078125;28;20223;-71
2022/04/15 05:53:52;;;;;;;19.30;14.15;;;;;;;8.72;53.37;95383.66;5077704;28;20204;-71
2022/04/15 05:56:19;;;;;;;14.93;13.23;;;;;;;8.77;53.88;95387.00;5095541;28;20196;-71
2022/04/15 05:58:46;;;;;;;15.20;12.85;;;;;;;8.85;53.85;95382.56;5095012;28;20180;-71
2022/04/15 06:01:16;;;;;;;14.75;12.93;;;;;;;8.90;53.12;95383.19;5095001;28;20227;-71
2022/04/15 06:03:43;;;;;;;16.77;13.75;;;;;;;8.95;53.23;95384.94;5094897;28;20636;-71
2022/04/15 06:06:11;;;;;;;14.65;12.90;;;;;;;9.02;54.13;95378.91;5073930;28;20735;-71
2022/04/15 06:08:38;;;;;;;13.38;11.68;;;;;;;9.09;53.19;95390.97;5074073;28;20200;-71
2022/04/15 06:11:05;;;;;;;12.20;10.18;;;;;;;9.18;51.85;95384.59;5057218;28;20625;-71
2022/04/15 06:13:32;;;;;;;12.48;10.00;;;;;;;9.28;51.94;95384.19;5074692;28;20255;-71
2022/04/15 06:15:59;;;;;;;13.38;9.60;;;;;;;9.33;51.76;95383.97;5074069;28;20227;-71
2022/04/15 06:18:34;;;;;;;12.23;9.30;;;;;;;9.37;51.45;95385.72;5074552;28;20225;-71
2022/04/15 06:21:01;;;;;;;11.05;9.93;;;;;;;9.44;50.93;95384.38;5073963;28;20192;-71
2022/04/15 06:23:28;;;;;;;13.25;10.18;;;;;;;9.48;50.88;95377.88;5074443;28;20571;-71
2022/04/15 06:25:55;;;;;;;14.15;10.70;;;;;;;9.53;51.11;95383.16;5073721;28;20189;-71
2022/04/15 06:28:24;;;;;;;11.52;9.88;;;;;;;9.55;51.44;95378.13;5057437;28;20197;-71
2022/04/15 06:30:54;;;;;;;15.50;10.32;;;;;;;9.60;52.17;95385.34;5073480;28;20220;-71
2022/04/15 06:33:21;;;;;;;14.05;10.60;;;;;;;9.64;51.94;95389.84;5057136;28;20200;-71
2022/04/15 06:35:52;;;;;;;11.88;9.80;;;;;;;9.71;51.19;95381.03;5074923;28;20182;-71
2022/04/15 06:38:19;;;;;;;12.82;9.07;;;;;;;9.76;51.23;95380.00;5075116;28;20188;-71
2022/04/15 06:40:46;;;;;;;9.80;8.45;;;;;;;9.83;50.85;95374.75;5077731;28;20258;-71
2022/04/15 06:43:14;;;;;;;9.20;8.13;;;;;;;9.93;49.75;95365.25;5078229;28;20223;-71
2022/04/15 06:45:42;;;;;;;10.65;8.32;;;;;;;10.01;48.96;95361.59;5078111;28;20205;-71
2022/04/15 06:48:09;;;;;;;9.00;7.70;;;;;;;10.08;48.72;95368.13;5078428;28;20178;-71
2022/04/15 06:50:36;;;;;;;10.75;9.52;;;;;;;10.17;48.15;95372.72;5078063;28;20286;-71
2022/04/15 06:53:05;;;;;;;15.60;12.13;;;;;;;10.25;48.66;95366.34;5077811;28;20189;-71
2022/04/15 06:55:32;;;;;;;13.50;11.80;;;;;;;10.34;48.86;95367.03;5060886;28;20193;-71
2022/04/15 06:57:59;;;;;;;17.23;13.50;;;;;;;10.46;49.98;95371.78;5077297;28;20613;-71
2022/04/15 07:00:26;;;;;;;20.73;14.10;;;;;;;10.57;50.52;95364.66;5060751;28;20201;-71
2022/04/15 07:02:53;;;;;;;20.50;13.13;;;;;;;10.64;49.52;95367.63;5077166;28;20185;-71
2022/04/15 07:05:20;;;;;;;18.08;14.48;;;;;;;10.68;48.56;95359.47;5077135;28;20228;-71
2022/04/15 07:07:47;;;;;;;18.60;15.63;;;;;;;10.69;48.26;95359.09;5077178;28;20207;-71
2022/04/15 07:10:15;;;;;;;17.92;15.05;;;;;;;10.76;48.63;95364.84;5077870;28;20205;-71
2022/04/15 07:12:42;;;;;;;25.25;15.98;;;;;;;10.83;48.98;95362.31;5060495;28;20211;-71
2022/04/15 07:15:10;;;;;;;20.90;15.25;;;;;;;10.94;49.48;95359.88;5078355;28;20196;-71
2022/04/15 07:17:36;;;;;;;18.83;15.55;;;;;;;11.01;48.61;95351.00;5077078;28;20200;-71
2022/04/15 07:20:05;;;;;;;17.08;15.25;;;;;;;11.09;47.50;95353.63;5077545;28;20193;-71
2022/04/15 07:22:32;;;;;;;20.08;15.55;;;;;;;11.17;47.00;95349.13;5077868;28;20189;-71
2022/04/15 07:24:59;;;;;;;18.02;14.52;;;;;;;11.26;47.53;95343.47;5077610;28;20205;-71
2022/04/15 07:27:27;;;;;;;21.67;15.32;;;;;;;11.43;49.25;95350.63;5076816;28;20267;-71
2022/04/15 07:29:54;;;;;;;16.73;14.60;;;;;;;11.54;46.61;95344.25;5060215;28;20201;-71
2022/04/15 07:32:22;;;;;;;17.40;14.63;;;;;;;11.68;47.27;95356.84;5076926;28;20185;-71
2022/04/15 07:34:50;;;;;;;15.32;13.75;;;;;;;11.76;47.72;95347.59;5076561;28;20197;-71
2022/04/15 07:37:17;;;;;;;17.05;13.60;;;;;;;11.81;46.83;95350.13;5076952;28;20211;-71
2022/04/15 07:39:44;;;;;;;15.50;12.68;;;;;;;11.88;45.70;95342.06;5076681;28;20292;-71
2022/04/15 07:42:12;;;;;;;14.40;12.10;;;;;;;11.97;44.92;95341.88;5077593;28;20192;-71
2022/04/15 07:44:41;;;;;;;15.75;11.57;;;;;;;12.10;45.44;95340.66;5059560;28;20247;-71
2022/04/15 07:47:09;;;;;;;13.50;11.50;;;;;;;12.27;45.34;95336.69;5077048;28;20181;-71
2022/04/15 07:49:37;;;;;;;13.77;11.60;;;;;;;12.42;46.00;95344.22;5077013;28;20184;-71
2022/04/15 07:52:06;;;;;;;12.48;10.57;;;;;;;12.55;45.50;95339.38;5076607;28;20236;-71
2022/04/15 07:54:33;;;;;;;14.68;10.20;;;;;;;12.66;44.84;95340.41;5059062;28;20216;-71
2022/04/15 07:57:00;;;;;;;12.77;9.63;;;;;;;12.78;44.57;95342.28;5076818;28;20235;-71
2022/04/15 07:59:27;;;;;;;11.18;9.88;;;;;;;12.92;42.41;95344.56;5076749;28;20239;-71
2022/04/15 08:01:55;;;;;;;13.55;10.40;;;;;;;12.99;42.44;95333.66;5077325;28;20259;-71
2022/04/15 08:04:22;;;;;;;11.40;10.05;;;;;;;13.11;43.48;95332.72;5076950;28;20240;-71
2022/04/15 08:06:49;;;;;;;10.82;9.73;;;;;;;13.24;41.38;95331.44;5079357;28;20228;-71
2022/04/15 08:09:16;;;;;;;12.00;9.55;;;;;;;13.28;41.96;95328.75;5096984;28;20200;-71
2022/04/15 08:11:43;;;;;;;9.82;8.75;;;;;;;13.39;44.51;95327.81;5079041;28;20204;-71
2022/04/15 08:14:10;;;;;;;10.60;8.27;;;;;;;13.57;44.62;95328.16;5097176;28;20185;-71
2022/04/15 08:16:37;;;;;;;11.90;8.23;;;;;;;13.69;41.32;95324.47;5097141;28;20220;-71
2022/04/15 08:19:06;;;;;;;9.90;8.77;;;;;;;13.84;41.86;95322.75;5079077;28;20200;-71
2022/04/15 08:21:33;;;;;;;12.38;8.30;;;;;;;14.00;42.21;95319.88;5079011;28;20235;-71
2022/04/15 08:24:02;;;;;;;11.18;8.70;;;;;;;14.06;40.01;95324.75;5096800;28;20212;-71
2022/04/15 08:26:30;;;;;;;9.00;8.10;;;;;;;14.10;41.77;95320.06;5079341;28;20278;-71
2022/04/15 08:28:57;;;;;;;9.15;8.07;;;;;;;14.15;39.62;95318.94;5096974;28;20212;-71
2022/04/15 08:31:24;;;;;;;11.55;8.52;;;;;;;14.18;38.45;95315.44;5096857;28;20197;-70
2022/04/15 08:33:51;;;;;;;9.98;8.32;;;;;;;14.25;38.17;95318.31;5078852;28;20196;-70
2022/04/15 08:36:21;;;;;;;13.38;8.32;;;;;;;14.37;38.58;95312.56;5078491;28;20207;-70
2022/04/15 08:38:49;;;;;;;9.18;8.18;;;;;;;14.51;38.99;95305.69;5096438;28;20277;-71
2022/04/15 08:41:18;;;;;;;10.55;9.45;;;;;;;14.62;39.98;95301.09;5096369;28;20668;-71
2022/04/15 08:43:45;;;;;;;10.13;8.43;;;;;;;14.72;39.06;95296.91;5079098;28;20247;-70
2022/04/15 08:46:13;;;;;;;10.20;9.20;;;;;;;14.82;39.84;95293.47;5078916;28;20220;-71
2022/04/15 08:48:40;;;;;;;9.95;8.93;;;;;;;14.96;38.99;95288.13;5078599;28;20232;-71
2022/04/15 08:51:08;;;;;;;11.57;8.63;;;;;;;15.13;39.93;95292.31;5096837;28;20272;-71
2022/04/15 08:53:37;;;;;;;10.88;8.77;;;;;;;15.19;38.09;95279.69;5095979;28;20649;-71
2022/04/15 08:56:05;;;;;;;9.32;8.38;;;;;;;15.30;38.64;95280.63;5078770;28;20199;-70
2022/04/15 08:58:32;;;;;;;9.65;8.30;;;;;;;15.55;39.43;95269.00;5078609;28;20223;-70
2022/04/15 09:00:59;;;;;;;12.27;8.73;;;;;;;15.69;39.54;95269.19;5095612;28;20290;-70
2022/04/15 09:03:26;;;;;;;11.65;8.65;;;;;;;15.78;36.79;95268.88;5078481;28;20195;-71
2022/04/15 09:05:53;;;;;;;10.48;8.40;;;;;;;15.81;36.86;95271.69;5096232;28;20232;-71
2022/04/15 09:08:21;;;;;;;10.13;8.60;;;;;;;15.95;37.76;95262.69;5078489;28;20192;-71
2022/04/15 09:10:59;;;;;;;8.80;8.00;;;;;;;16.10;37.17;95250.53;5078348;28;20223;-71
2022/04/15 09:13:31;;;;;;;11.93;8.48;;;;;;;16.19;36.46;95250.19;5078827;28;20231;-71
2022/04/15 09:16:01;;;;;;;9.23;8.23;;;;;;;16.27;36.37;95240.72;5096039;28;20188;-71
2022/04/15 09:18:36;;;;;;;11.07;8.02;;;;;;;16.41;37.95;95230.88;5078180;28;20247;-71
2022/04/15 09:21:17;;;;;;;10.68;7.43;;;;;;;16.62;37.50;95239.38;5095919;28;20188;-71
2022/04/15 09:23:46;;;;;;;9.73;8.15;;;;;;;16.75;37.87;95235.13;5078389;28;20265;-71
2022/04/15 09:26:15;;;;;;;9.68;7.53;;;;;;;16.83;36.65;95224.81;5078098;28;20249;-71
2022/04/15 09:28:42;;;;;;;8.82;7.82;;;;;;;16.91;36.19;95229.22;5077994;28;20275;-71
2022/04/15 09:31:13;;;;;;;8.70;7.80;;;;;;;17.02;35.12;95224.50;5096053;28;20195;-71
2022/04/15 09:33:51;;;;;;;10.05;7.88;;;;;;;17.05;34.18;95218.16;5077852;28;20295;-71
2022/04/15 09:36:30;;;;;;;11.60;7.90;;;;;;;17.21;35.63;95217.03;5077783;28;20281;-71
2022/04/15 09:39:02;;;;;;;8.82;7.35;;;;;;;17.29;33.95;95205.53;5095255;28;20192;-71
2022/04/15 09:41:32;;;;;;;9.50;8.23;;;;;;;17.40;34.53;95205.56;5095528;28;20234;-71
2022/04/15 09:44:01;;;;;;;10.02;8.30;;;;;;;17.49;33.69;95205.97;5077769;28;20220;-71
2022/04/15 09:46:30;;;;;;;10.10;8.60;;;;;;;17.64;33.95;95198.44;5077742;28;20207;-70
2022/04/15 09:49:08;;;;;;;11.75;8.23;;;;;;;17.88;34.09;95196.13;5077730;28;20184;-70
2022/04/15 09:51:43;;;;;;;10.40;8.43;;;;;;;18.00;33.40;95188.16;5095451;28;20188;-71
2022/04/15 09:54:19;;;;;;;10.13;8.05;;;;;;;18.15;33.07;95175.00;5077804;28;20188;-71
2022/04/15 09:56:47;;;;;;;9.38;7.70;;;;;;;18.23;34.58;95181.41;5077214;28;20220;-71
2022/04/15 09:59:15;;;;;;;8.55;7.75;;;;;;;18.33;34.47;95172.19;5078005;28;20204;-71
2022/04/15 10:01:45;;;;;;;9.05;7.65;;;;;;;18.43;34.93;95165.00;5095232;28;20199;-71
2022/04/15 10:04:13;;;;;;;10.55;7.43;;;;;;;18.50;33.10;95162.19;5094930;28;20200;-71
2022/04/15 10:06:43;;;;;;;7.80;7.00;;;;;;;18.66;33.36;95156.97;5094949;28;20310;-70
2022/04/15 10:09:13;;;;;;;11.35;7.80;;;;;;;18.81;32.30;95152.19;5077719;28;20313;-70
2022/04/15 10:11:42;;;;;;;10.32;7.32;;;;;;;18.93;34.28;95151.75;5077872;28;20238;-71
2022/04/15 10:14:12;;;;;;;9.15;6.80;;;;;;;19.12;33.90;95146.88;5097122;28;20203;-71
2022/04/15 10:16:39;;;;;;;9.48;7.18;;;;;;;19.17;34.07;95141.66;5081555;28;20206;-71
2022/04/15 10:19:08;;;;;;;8.68;6.97;;;;;;;19.31;32.55;95137.19;5064847;28;20266;-71
2022/04/15 10:21:37;;;;;;;8.50;6.53;;;;;;;19.39;31.54;95138.72;5099054;28;20181;-71
2022/04/15 10:24:07;;;;;;;8.13;6.25;;;;;;;19.47;30.50;95143.88;5099260;28;20215;-71
2022/04/15 10:26:35;;;;;;;9.60;6.57;;;;;;;19.63;33.17;95125.84;5081303;28;20679;-71
2022/04/15 10:29:03;;;;;;;8.05;6.50;;;;;;;19.70;32.44;95123.78;5099081;28;20200;-71
2022/04/15 10:31:39;;;;;;;7.97;6.00;;;;;;;19.73;32.02;95119.38;5099011;28;20604;-71
2022/04/15 10:34:12;;;;;;;8.38;5.88;;;;;;;19.74;31.90;95117.38;5098871;28;20191;-71
2022/04/15 10:36:39;;;;;;;6.25;5.60;;;;;;;19.85;30.47;95115.28;5098707;28;20192;-71
2022/04/15 10:39:17;;;;;;;8.45;6.43;;;;;;;20.03;31.34;95104.72;5081655;28;20228;-71
2022/04/15 10:41:56;;;;;;;6.60;6.00;;;;;;;20.20;28.79;95102.97;5081038;28;20624;-71
2022/04/15 10:44:33;;;;;;;6.90;5.60;;;;;;;20.25;29.80;95098.94;5080932;28;20265;-71
2022/04/15 10:47:30;;;;;;;7.72;6.93;;;;;;;20.47;31.75;95091.09;5080952;28;20188;-71
2022/04/15 10:50:03;;;;;;;10.48;7.70;;;;;;;20.60;31.80;95087.38;5095574;28;20632;-71
2022/04/15 10:52:30;;;;;;;9.00;7.35;;;;;;;20.79;30.86;95085.16;5098345;28;20301;-71
2022/04/15 10:55:02;;;;;;;7.50;6.18;;;;;;;20.97;29.96;95087.75;5080966;28;20189;-71
2022/04/15 10:57:33;;;;;;;7.32;5.63;;;;;;;21.11;27.73;95090.38;5080765;28;20291;-71
2022/04/15 11:02:45;;;;;;;6.13;5.45;;;;;;;21.10;27.83;95083.97;5080563;28;20180;-71
2022/04/15 11:05:16;;;;;;;6.78;5.47;;;;;;;21.21;27.03;95086.63;5080334;28;20236;-71
2022/04/15 11:07:51;;;;;;;6.75;5.53;;;;;;;21.35;27.95;95078.06;5098251;28;20253;-71
2022/04/15 11:10:19;;;;;;;6.38;5.82;;;;;;;21.52;30.06;95076.19;5098410;28;20253;-72
2022/04/15 11:12:46;;;;;;;8.35;6.50;;;;;;;21.61;27.95;95070.06;5080173;28;20222;-71
2022/04/15 11:15:15;;;;;;;6.50;5.90;;;;;;;21.61;27.01;95075.69;5098351;28;20224;-71
2022/04/15 11:17:46;;;;;;;6.43;5.03;;;;;;;21.53;26.85;95066.56;5080275;28;20200;-71
2022/04/15 11:20:15;;;;;;;5.60;5.10;;;;;;;21.51;27.55;95065.41;5097878;28;20220;-71
2022/04/15 11:22:43;;;;;;;9.00;5.22;;;;;;;21.51;27.35;95071.00;5098225;28;20212;-71
2022/04/15 11:25:11;;;;;;;5.97;5.40;;;;;;;21.72;26.94;95059.47;5079287;28;20251;-71
2022/04/15 11:27:39;;;;;;;7.40;5.15;;;;;;;21.94;26.12;95054.28;5098071;28;20317;-71
2022/04/15 11:30:12;;;;;;;6.80;4.72;;;;;;;22.04;26.80;95052.50;5080373;28;20207;-71
2022/04/15 11:32:47;;;;;;;5.40;4.88;;;;;;;22.09;27.63;95052.03;5080068;28;20210;-71
2022/04/15 11:35:28;;;;;;;8.27;5.07;;;;;;;22.19;28.22;95045.44;5097049;28;20208;-71
2022/04/15 11:37:59;;;;;;;6.22;4.93;;;;;;;22.30;28.99;95042.44;5097941;28;20185;-71
2022/04/15 11:40:30;;;;;;;5.00;4.53;;;;;;;22.46;29.13;95036.91;5079440;28;20696;-71
2022/04/15 11:42:59;;;;;;;7.25;4.78;;;;;;;22.52;27.18;95025.97;5097636;28;20224;-71